createdAt,value
2023-12-13T00:00:32.649Z,7.10
2023-12-13T00:03:00.708Z,6.65
2023-12-13T00:05:27.529Z,9.02
2023-12-13T00:07:54.275Z,6.72
2023-12-13T00:10:21.105Z,7.13
2023-12-13T00:12:47.637Z,5.95
2023-12-13T00:15:14.181Z,9.38
2023-12-13T00:17:40.820Z,8.68
2023-12-13T00:20:08.341Z,8.23
2023-12-13T00:22:35.007Z,8.25
2023-12-13T00:25:01.588Z,7.78
2023-12-13T00:27:28.140Z,8.95
2023-12-13T00:29:54.663Z,9.07
2023-12-13T00:32:21.252Z,9.02
2023-12-13T00:34:47.992Z,10.00
2023-12-13T00:37:14.582Z,8.88
2023-12-13T00:39:41.112Z,8.57
2023-12-13T00:42:07.608Z,9.75
2023-12-13T00:44:34.155Z,9.18
2023-12-13T00:47:00.947Z,9.63
2023-12-13T00:49:27.644Z,10.80
2023-12-13T00:51:54.230Z,11.95
2023-12-13T00:54:20.728Z,9.15
2023-12-13T00:56:47.273Z,12.00
2023-12-13T00:59:13.822Z,12.07
2023-12-13T01:01:45.153Z,10.32
2023-12-13T01:04:12.397Z,11.65
2023-12-13T01:06:39.081Z,13.40
2023-12-13T01:09:05.588Z,14.30
2023-12-13T01:11:33.134Z,12.75
2023-12-13T01:14:00.100Z,12.48
2023-12-13T01:16:26.753Z,14.95
2023-12-13T01:18:53.296Z,14.05
2023-12-13T01:21:19.836Z,12.65
2023-12-13T01:23:46.354Z,14.57
2023-12-13T01:26:12.965Z,15.20
2023-12-13T01:28:39.534Z,15.15
2023-12-13T01:31:08.639Z,12.60
2023-12-13T01:33:35.304Z,10.25
2023-12-13T01:36:03.399Z,12.25
2023-12-13T01:38:29.880Z,12.82
2023-12-13T01:41:11.405Z,13.40
2023-12-13T01:43:41.365Z,12.63
2023-12-13T01:46:08.883Z,14.57
2023-12-13T01:48:35.895Z,13.20
2023-12-13T01:51:02.515Z,14.75
2023-12-13T01:53:29.726Z,13.90
2023-12-13T01:55:56.719Z,16.48
2023-12-13T01:58:24.333Z,14.75
2023-12-13T02:00:52.961Z,16.30
2023-12-13T02:03:21.907Z,14.30
2023-12-13T02:05:50.815Z,14.35
2023-12-13T02:08:17.500Z,15.07
2023-12-13T02:10:44.157Z,15.45
2023-12-13T02:13:12.185Z,14.20
2023-12-13T02:15:38.646Z,15.65
2023-12-13T02:18:08.200Z,13.63
2023-12-13T02:20:34.804Z,14.75
2023-12-13T02:23:01.487Z,18.15
2023-12-13T02:25:38.848Z,12.68
2023-12-13T02:28:07.036Z,14.85
2023-12-13T02:30:33.547Z,14.50
2023-12-13T02:33:00.595Z,12.10
2023-12-13T02:35:27.488Z,14.30
2023-12-13T02:37:54.128Z,13.40
2023-12-13T02:40:23.158Z,14.45
2023-12-13T02:42:49.858Z,13.20
2023-12-13T02:45:16.513Z,15.30
2023-12-13T02:47:43.516Z,17.75
2023-12-13T02:50:14.715Z,13.98
2023-12-13T02:52:41.926Z,15.70
2023-12-13T02:55:12.316Z,13.70
2023-12-13T02:57:39.290Z,14.02
2023-12-13T03:00:06.679Z,14.20
2023-12-13T03:02:34.014Z,16.38
2023-12-13T03:05:02.272Z,14.85
2023-12-13T03:07:29.398Z,16.00
2023-12-13T03:09:55.991Z,13.70
2023-12-13T03:12:22.496Z,13.93
2023-12-13T03:14:49.109Z,13.90
2023-12-13T03:17:15.628Z,14.93
2023-12-13T03:19:42.704Z,12.13
2023-12-13T03:22:09.370Z,17.65
2023-12-13T03:24:36.519Z,14.90
2023-12-13T03:27:03.144Z,13.20
2023-12-13T03:29:29.765Z,12.48
2023-12-13T03:31:56.272Z,15.90
2023-12-13T03:34:22.953Z,14.68
2023-12-13T03:36:49.457Z,14.38
2023-12-13T03:39:17.273Z,19.98
2023-12-13T03:41:43.856Z,15.95
2023-12-13T03:44:10.407Z,15.93
2023-12-13T03:46:40.094Z,11.65
2023-12-13T03:49:08.159Z,13.07
2023-12-13T03:51:34.730Z,10.75
2023-12-13T03:54:01.953Z,11.40
2023-12-13T03:56:30.934Z,12.63
2023-12-13T03:58:58.036Z,11.70
2023-12-13T04:01:24.854Z,13.57
2023-12-13T04:03:51.644Z,13.18
2023-12-13T04:06:18.471Z,12.10
2023-12-13T04:08:45.018Z,12.48
2023-12-13T04:11:11.656Z,11.88
2023-12-13T04:13:38.203Z,12.02
2023-12-13T04:16:05.007Z,13.45
2023-12-13T04:18:31.612Z,15.95
2023-12-13T04:20:58.194Z,14.43
2023-12-13T04:23:25.600Z,15.40
2023-12-13T04:25:52.545Z,13.38
2023-12-13T04:28:19.339Z,15.63
2023-12-13T04:30:45.958Z,14.57
2023-12-13T04:33:12.631Z,13.15
2023-12-13T04:35:39.120Z,14.18
2023-12-13T04:38:06.102Z,17.17
2023-12-13T04:40:32.777Z,14.52
2023-12-13T04:43:01.524Z,13.85
2023-12-13T04:45:28.079Z,16.05
2023-12-13T04:47:54.598Z,15.48
2023-12-13T04:50:21.102Z,15.35
2023-12-13T04:52:47.686Z,14.10
2023-12-13T04:55:14.336Z,16.45
2023-12-13T04:57:40.933Z,16.30
2023-12-13T05:00:08.963Z,16.80
2023-12-13T05:02:35.596Z,14.60
2023-12-13T05:05:02.182Z,15.60
2023-12-13T05:07:29.877Z,15.40
2023-12-13T05:09:56.664Z,16.23
2023-12-13T05:12:23.199Z,14.85
2023-12-13T05:14:49.881Z,18.92
2023-12-13T05:17:16.409Z,17.85
2023-12-13T05:19:43.044Z,26.85
2023-12-13T05:22:09.555Z,14.43
2023-12-13T05:24:36.874Z,17.27
2023-12-13T05:27:03.445Z,20.35
2023-12-13T05:29:29.902Z,18.75
2023-12-13T05:31:57.890Z,17.30
2023-12-13T05:34:24.751Z,19.20
2023-12-13T05:36:51.302Z,19.58
2023-12-13T05:39:17.838Z,18.90
2023-12-13T05:41:44.323Z,18.60
2023-12-13T05:44:10.786Z,19.88
2023-12-13T05:46:37.456Z,19.65
2023-12-13T05:49:07.093Z,20.42
2023-12-13T05:51:34.579Z,22.10
2023-12-13T05:54:01.040Z,19.75
2023-12-13T05:56:28.516Z,20.85
2023-12-13T05:58:56.348Z,21.67
2023-12-13T06:01:23.979Z,19.48
2023-12-13T06:03:50.696Z,18.55
2023-12-13T06:06:17.445Z,21.00
2023-12-13T06:08:44.016Z,21.20
2023-12-13T06:11:10.467Z,23.50
2023-12-13T06:13:37.058Z,19.88
2023-12-13T06:16:03.856Z,19.90
2023-12-13T06:18:30.411Z,24.08
2023-12-13T06:20:57.025Z,23.10
2023-12-13T06:23:24.738Z,19.42
2023-12-13T06:25:51.374Z,21.50
2023-12-13T06:28:18.027Z,19.73
2023-12-13T06:30:44.644Z,21.10
2023-12-13T06:33:11.315Z,22.50
2023-12-13T06:35:37.762Z,24.63
2023-12-13T06:38:04.493Z,21.40
2023-12-13T06:40:31.194Z,23.10
2023-12-13T06:42:57.671Z,23.40
2023-12-13T06:45:24.178Z,25.20
2023-12-13T06:47:50.951Z,21.70
2023-12-13T06:50:17.588Z,22.67
2023-12-13T06:52:45.236Z,23.67
2023-12-13T06:55:11.811Z,23.38
2023-12-13T06:57:38.658Z,23.75
2023-12-13T07:00:06.249Z,24.90
2023-12-13T07:02:32.867Z,22.88
2023-12-13T07:05:00.113Z,21.50
2023-12-13T07:07:26.818Z,22.98
2023-12-13T07:09:53.379Z,24.92
2023-12-13T07:12:19.897Z,24.05
2023-12-13T07:14:46.863Z,27.30
2023-12-13T07:17:13.413Z,25.33
2023-12-13T07:19:40.340Z,27.45
2023-12-13T07:22:06.919Z,24.60
2023-12-13T07:24:33.465Z,28.20
2023-12-13T07:26:59.944Z,26.48
2023-12-13T07:29:26.554Z,24.58
2023-12-13T07:31:54.496Z,27.30
2023-12-13T07:34:21.853Z,24.17
2023-12-13T07:36:50.260Z,26.92
2023-12-13T07:39:17.131Z,27.63
2023-12-13T07:41:43.643Z,24.60
2023-12-13T07:44:10.395Z,23.98
2023-12-13T07:46:37.688Z,26.88
2023-12-13T07:49:07.205Z,22.02
2023-12-13T07:51:34.014Z,23.42
2023-12-13T07:54:01.980Z,23.33
2023-12-13T07:56:30.749Z,29.05
2023-12-13T07:59:00.728Z,25.60
2023-12-13T08:01:28.120Z,22.05
2023-12-13T08:03:54.648Z,23.23
2023-12-13T08:06:22.177Z,23.40
2023-12-13T08:08:49.038Z,24.55
2023-12-13T08:11:18.047Z,22.70
2023-12-13T08:13:44.674Z,25.33
2023-12-13T08:16:13.553Z,25.15
2023-12-13T08:18:40.227Z,29.42
2023-12-13T08:21:07.581Z,26.42
2023-12-13T08:23:35.465Z,27.55
2023-12-13T08:26:02.132Z,23.98
2023-12-13T08:28:28.711Z,23.45
2023-12-13T08:31:04.776Z,28.77
2023-12-13T08:33:43.463Z,23.20
2023-12-13T08:36:13.986Z,24.05
2023-12-13T08:38:41.302Z,20.70
2023-12-13T08:41:08.878Z,25.17
2023-12-13T08:43:35.598Z,22.70
2023-12-13T08:46:02.910Z,25.55
2023-12-13T08:48:29.797Z,27.20
2023-12-13T08:50:56.331Z,26.90
2023-12-13T08:53:22.869Z,23.13
2023-12-13T08:55:49.382Z,25.83
2023-12-13T08:58:16.574Z,25.60
2023-12-13T09:00:43.569Z,26.80
2023-12-13T09:03:10.304Z,26.42
2023-12-13T09:05:38.751Z,28.40
2023-12-13T09:08:05.878Z,26.67
2023-12-13T09:10:35.980Z,23.85
2023-12-13T09:13:06.276Z,23.13
2023-12-13T09:15:32.882Z,24.40
2023-12-13T09:17:59.667Z,23.55
2023-12-13T09:20:27.357Z,26.45
2023-12-13T09:22:53.990Z,27.77
2023-12-13T09:25:20.585Z,25.10
2023-12-13T09:27:50.275Z,21.90
2023-12-13T09:30:18.696Z,24.83
2023-12-13T09:32:47.735Z,24.58
2023-12-13T09:35:15.144Z,24.50
2023-12-13T09:37:42.935Z,21.63
2023-12-13T09:40:17.100Z,23.83
2023-12-13T09:42:46.413Z,24.98
2023-12-13T09:45:25.195Z,21.13
2023-12-13T09:47:53.416Z,22.10
2023-12-13T09:50:22.937Z,26.00
2023-12-13T09:52:51.170Z,22.17
2023-12-13T09:55:18.217Z,21.90
2023-12-13T09:57:44.844Z,22.92
2023-12-13T10:00:14.512Z,19.48
2023-12-13T10:02:41.489Z,19.05
2023-12-13T10:05:12.476Z,20.33
2023-12-13T10:07:42.580Z,19.92
2023-12-13T10:10:09.688Z,24.25
2023-12-13T10:12:38.403Z,22.40
2023-12-13T10:15:11.465Z,21.58
2023-12-13T10:17:39.562Z,25.27
2023-12-13T10:20:08.145Z,24.85
2023-12-13T10:22:35.612Z,24.05
2023-12-13T10:25:03.880Z,25.73
2023-12-13T10:27:31.348Z,23.92
2023-12-13T10:29:57.976Z,24.92
2023-12-13T10:32:24.887Z,33.00
2023-12-13T10:34:51.410Z,25.48
2023-12-13T10:37:19.481Z,25.55
2023-12-13T10:39:47.857Z,23.33
2023-12-13T10:42:18.289Z,25.23
2023-12-13T10:44:47.035Z,24.27
2023-12-13T10:47:14.577Z,28.80
2023-12-13T10:49:43.350Z,23.95
2023-12-13T10:52:11.109Z,21.48
2023-12-13T10:54:39.476Z,23.65
2023-12-13T10:57:06.322Z,22.83
2023-12-13T10:59:34.397Z,23.52
2023-12-13T11:02:03.459Z,21.60
2023-12-13T11:04:31.177Z,23.30
2023-12-13T11:07:06.529Z,22.27
2023-12-13T11:09:37.273Z,18.30
2023-12-13T11:12:13.213Z,20.05
2023-12-13T11:14:41.662Z,20.52
2023-12-13T11:17:08.430Z,23.13
2023-12-13T11:19:37.287Z,20.25
2023-12-13T11:22:07.637Z,19.30
2023-12-13T11:24:37.669Z,19.83
2023-12-13T11:27:11.420Z,17.83
2023-12-13T11:29:37.994Z,21.25
2023-12-13T11:32:05.745Z,20.25
2023-12-13T11:34:44.627Z,19.95
2023-12-13T11:37:13.347Z,24.17
2023-12-13T11:39:41.901Z,25.02
2023-12-13T11:42:10.346Z,23.50
2023-12-13T11:44:39.420Z,22.58
2023-12-13T11:47:08.590Z,21.50
2023-12-13T11:49:35.664Z,23.30
2023-12-13T11:52:04.456Z,21.48
2023-12-13T11:54:30.988Z,21.23
2023-12-13T11:56:57.673Z,19.92
2023-12-13T11:59:26.063Z,19.15
2023-12-13T12:01:52.712Z,18.05
2023-12-13T12:04:20.395Z,25.27
2023-12-13T12:06:51.520Z,20.00
2023-12-13T12:09:18.256Z,21.38
2023-12-13T12:11:45.028Z,21.65
2023-12-13T12:14:12.147Z,19.55
2023-12-13T12:16:38.938Z,21.38
2023-12-13T12:19:06.582Z,20.90
2023-12-13T12:21:35.962Z,21.73
2023-12-13T12:24:03.513Z,21.90
2023-12-13T12:26:30.020Z,24.27
2023-12-13T12:28:56.637Z,21.98
2023-12-13T12:31:23.280Z,23.55
2023-12-13T12:34:00.428Z,18.90
2023-12-13T12:36:27.205Z,23.00
2023-12-13T12:38:54.116Z,25.63
2023-12-13T12:41:23.145Z,22.77
2023-12-13T12:43:51.266Z,19.20
2023-12-13T12:46:22.115Z,22.08
2023-12-13T12:48:48.956Z,25.13
2023-12-13T12:51:15.665Z,22.83
2023-12-13T12:53:42.393Z,23.60
2023-12-13T12:56:11.387Z,20.65
2023-12-13T12:58:39.537Z,24.27
2023-12-13T13:01:06.329Z,22.00
2023-12-13T13:03:33.313Z,23.27
2023-12-13T13:06:01.287Z,23.58
2023-12-13T13:08:27.837Z,22.13
2023-12-13T13:10:54.768Z,23.60
2023-12-13T13:13:21.403Z,25.80
2023-12-13T13:15:47.951Z,23.73
2023-12-13T13:18:14.563Z,21.27
2023-12-13T13:20:41.579Z,22.60
2023-12-13T13:23:08.290Z,30.65
2023-12-13T13:25:35.019Z,22.27
2023-12-13T13:28:01.666Z,22.88
2023-12-13T13:30:28.305Z,20.88
2023-12-13T13:32:55.052Z,23.50
2023-12-13T13:35:21.708Z,21.02
2023-12-13T13:37:50.462Z,20.27
2023-12-13T13:40:19.198Z,19.38
2023-12-13T13:42:46.332Z,25.33
2023-12-13T13:45:12.872Z,20.75
2023-12-13T13:47:39.789Z,20.42
2023-12-13T13:50:08.824Z,20.45
2023-12-13T13:52:35.634Z,18.67
2023-12-13T13:55:02.445Z,20.27
2023-12-13T13:57:28.963Z,17.88
2023-12-13T13:59:55.468Z,19.75
2023-12-13T14:02:32.712Z,22.45
2023-12-13T14:05:01.940Z,22.55
2023-12-13T14:07:28.528Z,24.42
2023-12-13T14:09:57.150Z,23.13
2023-12-13T14:12:23.623Z,25.40
2023-12-13T14:14:50.186Z,21.05
2023-12-13T14:17:17.582Z,23.83
2023-12-13T14:19:44.092Z,19.98
2023-12-13T14:22:11.206Z,18.73
2023-12-13T14:24:37.778Z,20.70
2023-12-13T14:27:04.545Z,21.45
2023-12-13T14:29:33.282Z,23.67
2023-12-13T14:32:00.766Z,20.45
2023-12-13T14:34:27.496Z,19.05
2023-12-13T14:36:54.022Z,17.33
2023-12-13T14:39:23.483Z,19.98
2023-12-13T14:41:50.261Z,20.52
2023-12-13T14:44:19.867Z,18.20
2023-12-13T14:46:46.942Z,18.45
2023-12-13T14:49:13.751Z,17.05
2023-12-13T14:51:40.943Z,21.77
2023-12-13T14:54:07.637Z,20.45
2023-12-13T14:56:34.350Z,17.88
2023-12-13T14:59:00.952Z,18.88
2023-12-13T15:01:28.090Z,17.17
2023-12-13T15:03:54.710Z,17.63
2023-12-13T15:06:21.553Z,19.17
2023-12-13T15:08:48.634Z,19.20
2023-12-13T15:11:15.136Z,18.10
2023-12-13T15:13:44.088Z,22.08
2023-12-13T15:16:10.777Z,20.83
2023-12-13T15:18:37.452Z,25.85
2023-12-13T15:21:04.242Z,25.17
2023-12-13T15:23:30.904Z,24.27
2023-12-13T15:25:57.586Z,26.98
2023-12-13T15:28:24.116Z,25.20
2023-12-13T15:30:50.901Z,26.40
2023-12-13T15:33:17.629Z,25.95
2023-12-13T15:35:45.934Z,32.00
2023-12-13T15:38:12.608Z,28.33
2023-12-13T15:40:39.367Z,32.88
2023-12-13T15:43:05.979Z,28.02
2023-12-13T15:45:32.542Z,31.40
2023-12-13T15:47:59.015Z,26.00
2023-12-13T15:50:25.487Z,34.00
2023-12-13T15:52:51.977Z,29.40
2023-12-13T15:55:18.546Z,32.58
2023-12-13T15:57:45.153Z,33.80
2023-12-13T16:00:12.070Z,33.55
2023-12-13T16:02:39.942Z,31.35
2023-12-13T16:05:09.753Z,30.60
2023-12-13T16:07:36.812Z,32.90
2023-12-13T16:10:03.740Z,33.85
2023-12-13T16:12:30.375Z,32.30
2023-12-13T16:14:57.200Z,34.67
2023-12-13T16:17:23.701Z,38.08
2023-12-13T16:19:50.211Z,33.90
2023-12-13T16:22:16.698Z,32.50
2023-12-13T16:24:44.309Z,32.50
2023-12-13T16:27:11.800Z,30.45
2023-12-13T16:29:38.455Z,28.27
2023-12-13T16:32:05.356Z,31.83
2023-12-13T16:34:32.132Z,33.13
2023-12-13T16:36:58.760Z,30.05
2023-12-13T16:39:25.215Z,31.75
2023-12-13T16:41:51.791Z,29.20
2023-12-13T16:44:18.394Z,32.22
2023-12-13T16:46:44.905Z,32.92
2023-12-13T16:49:11.573Z,39.75
2023-12-13T16:51:39.987Z,30.67
2023-12-13T16:54:06.589Z,31.77
2023-12-13T16:56:33.166Z,33.75
2023-12-13T16:59:00.060Z,31.00
2023-12-13T17:01:26.742Z,33.45
2023-12-13T17:03:55.317Z,32.05
2023-12-13T17:06:22.105Z,31.23
2023-12-13T17:08:48.661Z,31.63
2023-12-13T17:11:16.362Z,30.17
2023-12-13T17:13:43.459Z,39.80
2023-12-13T17:16:10.398Z,37.42
2023-12-13T17:18:37.191Z,35.40
2023-12-13T17:21:04.484Z,35.08
2023-12-13T17:23:31.119Z,39.22
2023-12-13T17:25:57.670Z,40.33
2023-12-13T17:28:24.562Z,39.67
2023-12-13T17:30:51.181Z,41.10
2023-12-13T17:33:17.913Z,36.25
2023-12-13T17:35:44.561Z,38.22
2023-12-13T17:38:11.179Z,38.40
2023-12-13T17:40:37.769Z,40.58
2023-12-13T17:43:04.316Z,40.42
2023-12-13T17:45:30.837Z,42.10
2023-12-13T17:47:57.409Z,44.67
2023-12-13T17:50:24.691Z,43.03
2023-12-13T17:52:51.315Z,38.17
2023-12-13T17:55:17.868Z,43.10
2023-12-13T17:57:44.649Z,42.53
2023-12-13T18:00:11.623Z,39.45
2023-12-13T18:02:38.131Z,45.85
2023-12-13T18:05:06.420Z,40.95
2023-12-13T18:07:33.161Z,46.10
2023-12-13T18:10:02.388Z,44.10
2023-12-13T18:12:29.037Z,45.58
2023-12-13T18:14:55.576Z,40.65
2023-12-13T18:17:22.022Z,43.63
2023-12-13T18:19:48.605Z,43.10
2023-12-13T18:22:15.090Z,42.40
2023-12-13T18:24:41.661Z,42.60
2023-12-13T18:27:08.169Z,44.63
2023-12-13T18:29:34.851Z,51.75
2023-12-13T18:32:04.140Z,41.45
2023-12-13T18:34:32.337Z,38.63
2023-12-13T18:36:59.350Z,31.17
2023-12-13T18:39:25.791Z,37.10
2023-12-13T18:41:52.333Z,37.53
2023-12-13T18:44:19.026Z,20.67
2023-12-13T18:46:45.569Z,20.98
2023-12-13T18:49:12.063Z,14.88
2023-12-13T18:51:38.645Z,15.35
2023-12-13T18:54:05.203Z,14.48
2023-12-13T18:56:31.718Z,10.20
2023-12-13T18:58:58.331Z,10.50
2023-12-13T19:01:25.124Z,11.25
2023-12-13T19:03:51.976Z,11.20
2023-12-13T19:06:19.863Z,14.23
2023-12-13T19:08:46.385Z,12.30
2023-12-13T19:11:13.039Z,13.45
2023-12-13T19:13:39.636Z,10.35
2023-12-13T19:16:06.924Z,11.77
2023-12-13T19:18:34.071Z,14.32
2023-12-13T19:21:00.643Z,12.10
2023-12-13T19:23:27.161Z,11.63
2023-12-13T19:25:53.764Z,12.45
2023-12-13T19:28:20.391Z,12.40
2023-12-13T19:30:47.496Z,9.57
2023-12-13T19:33:14.148Z,12.23
2023-12-13T19:35:40.619Z,11.02
2023-12-13T19:38:09.056Z,8.77
2023-12-13T19:40:36.184Z,7.85
2023-12-13T19:43:03.620Z,13.05
2023-12-13T19:45:31.139Z,11.82
2023-12-13T19:47:57.787Z,9.88
2023-12-13T19:50:24.630Z,8.18
2023-12-13T19:52:51.144Z,8.93
2023-12-13T19:55:17.718Z,9.35
2023-12-13T19:57:44.236Z,11.45
2023-12-13T20:00:11.191Z,11.57
2023-12-13T20:02:37.784Z,8.30
2023-12-13T20:05:04.790Z,10.52
2023-12-13T20:07:31.596Z,10.05
2023-12-13T20:09:58.230Z,11.00
2023-12-13T20:12:24.843Z,7.80
2023-12-13T20:14:51.518Z,9.95
2023-12-13T20:17:18.059Z,12.88
2023-12-13T20:19:44.629Z,13.93
2023-12-13T20:22:11.437Z,14.93
2023-12-13T20:24:37.995Z,14.30
2023-12-13T20:27:04.612Z,11.02
2023-12-13T20:29:31.154Z,14.60
2023-12-13T20:31:57.777Z,13.15
2023-12-13T20:34:26.415Z,15.68
2023-12-13T20:36:53.070Z,14.73
2023-12-13T20:39:20.287Z,14.82
2023-12-13T20:41:46.805Z,16.48
2023-12-13T20:44:13.370Z,15.13
2023-12-13T20:46:39.911Z,17.73
2023-12-13T20:49:06.563Z,14.25
2023-12-13T20:51:33.129Z,17.42
2023-12-13T20:53:59.626Z,16.33
2023-12-13T20:56:28.685Z,13.18
2023-12-13T20:58:55.293Z,17.25
2023-12-13T21:01:21.843Z,17.55
2023-12-13T21:03:48.526Z,14.40
2023-12-13T21:06:15.294Z,12.82
2023-12-13T21:08:42.020Z,15.52
2023-12-13T21:11:08.745Z,12.85
2023-12-13T21:13:35.430Z,16.25
2023-12-13T21:16:02.007Z,13.85
2023-12-13T21:18:28.715Z,14.07
2023-12-13T21:20:55.372Z,17.35
2023-12-13T21:23:22.021Z,17.40
2023-12-13T21:25:48.700Z,18.67
2023-12-13T21:28:15.257Z,16.67
2023-12-13T21:30:41.842Z,15.18
2023-12-13T21:33:08.387Z,14.73
2023-12-13T21:35:35.949Z,13.52
2023-12-13T21:38:02.662Z,10.85
2023-12-13T21:40:29.310Z,15.35
2023-12-13T21:42:55.815Z,16.67
2023-12-13T21:45:22.322Z,16.98
2023-12-13T21:47:48.911Z,17.02
2023-12-13T21:50:15.606Z,16.70
2023-12-13T21:52:44.179Z,12.80
2023-12-13T21:55:10.840Z,14.68
2023-12-13T21:57:37.564Z,15.65
2023-12-13T22:00:07.102Z,14.32
2023-12-13T22:02:34.150Z,12.35
2023-12-13T22:05:00.941Z,11.95
2023-12-13T22:07:27.524Z,14.63
2023-12-13T22:09:54.106Z,11.32
2023-12-13T22:12:21.118Z,13.52
2023-12-13T22:14:47.707Z,12.20
2023-12-13T22:17:20.092Z,14.85
2023-12-13T22:19:50.103Z,15.32
2023-12-13T22:22:18.453Z,16.00
2023-12-13T22:24:49.456Z,10.98
2023-12-13T22:27:16.193Z,12.45
2023-12-13T22:29:43.073Z,13.25
2023-12-13T22:32:09.625Z,13.68
2023-12-13T22:34:36.245Z,13.50
2023-12-13T22:37:02.851Z,13.43
2023-12-13T22:39:29.359Z,14.52
2023-12-13T22:41:55.860Z,17.83
2023-12-13T22:44:22.727Z,15.38
2023-12-13T22:46:49.273Z,15.13
2023-12-13T22:49:18.647Z,16.83
2023-12-13T22:52:18.088Z,13.60
2023-12-13T22:54:32.607Z,17.60
2023-12-13T22:56:59.715Z,16.10
2023-12-13T22:59:26.991Z,14.25
2023-12-13T23:01:57.675Z,13.02
2023-12-13T23:04:26.100Z,11.90
2023-12-13T23:06:52.621Z,11.75
2023-12-13T23:09:19.150Z,13.98
2023-12-13T23:11:45.791Z,14.02
2023-12-13T23:14:12.545Z,10.40
2023-12-13T23:16:39.035Z,14.27
2023-12-13T23:19:05.957Z,18.42
2023-12-13T23:21:32.508Z,10.77
2023-12-13T23:23:59.099Z,14.98
2023-12-13T23:26:25.986Z,15.50
2023-12-13T23:28:52.486Z,15.73
2023-12-13T23:31:24.717Z,14.52
2023-12-13T23:33:56.472Z,17.23
2023-12-13T23:36:23.210Z,11.10
2023-12-13T23:38:49.676Z,13.88
2023-12-13T23:41:16.195Z,15.85
2023-12-13T23:43:42.792Z,17.13
2023-12-13T23:46:11.027Z,13.05
2023-12-13T23:48:37.960Z,12.65
2023-12-13T23:51:04.703Z,15.82
2023-12-13T23:53:31.392Z,12.27
2023-12-13T23:55:57.896Z,14.20
2023-12-13T23:58:24.502Z,13.60
